Time;durP1;ratioP1;P1;durP2;ratioP2;P2;SDS_P1;SDS_P2;PMS_P1;PMS_P2;Temp;Humidity;BMP_temperature;BMP_pressure;BME280_temperature;BME280_humidity;BME280_pressure;Samples;Min_cycle;Max_cycle;Signal;HPM_P1;HPM_P2
2022/12/11 00:00:44;;;;;;;2.75;2.65;;;-2.80;99.90;;;;;;5087108;28;20042;-76
2022/12/11 00:03:10;;;;;;;3.28;3.00;;;-2.80;99.90;;;;;;5084417;28;20470;-76
2022/12/11 00:05:39;;;;;;;6.78;6.38;;;-2.80;99.90;;;;;;5074599;28;20029;-76
2022/12/11 00:08:04;;;;;;;1.33;1.33;;;-2.80;99.90;;;;;;5072692;28;20077;-75
2022/12/11 00:10:30;;;;;;;1.42;1.42;;;-2.70;99.90;;;;;;5086522;28;20021;-75
2022/12/11 00:12:55;;;;;;;1.65;1.65;;;-2.80;99.90;;;;;;5084546;28;20080;-75
2022/12/11 00:15:21;;;;;;;1.58;1.58;;;-2.70;99.90;;;;;;5073465;28;20032;-75
2022/12/11 00:17:47;;;;;;;1.23;1.23;;;-2.80;99.90;;;;;;5087769;28;20561;-77
2022/12/11 00:20:12;;;;;;;1.60;1.60;;;-2.90;99.90;;;;;;5075120;28;20020;-78
2022/12/11 00:22:38;;;;;;;1.55;1.55;;;-2.90;99.90;;;;;;5075079;28;20017;-77
2022/12/11 00:25:03;;;;;;;4.78;4.20;;;-2.90;99.90;;;;;;5073433;28;20021;-77
2022/12/11 00:27:29;;;;;;;1.38;1.38;;;-2.80;99.90;;;;;;5086033;28;20028;-77
2022/12/11 00:29:54;;;;;;;5.20;4.93;;;-2.90;99.90;;;;;;5075413;28;20055;-78
2022/12/11 00:32:20;;;;;;;1.20;1.20;;;-3.00;99.90;;;;;;5087352;28;20024;-77
2022/12/11 00:34:45;;;;;;;1.23;1.23;;;-3.10;99.90;;;;;;5075132;28;20025;-78
2022/12/11 00:37:11;;;;;;;1.40;1.40;;;-3.20;99.90;;;;;;5087579;28;20028;-77
2022/12/11 00:39:38;;;;;;;1.42;1.42;;;-3.30;99.90;;;;;;5079192;28;20393;-77
2022/12/11 00:42:04;;;;;;;2.03;1.98;;;-3.30;99.90;;;;;;5078877;28;20027;-77
2022/12/11 00:44:30;;;;;;;2.50;2.40;;;-3.20;99.90;;;;;;5080918;28;20027;-78
2022/12/11 00:46:55;;;;;;;1.52;1.52;;;-3.20;99.90;;;;;;5083007;28;20114;-76
2022/12/11 00:49:21;;;;;;;1.50;1.48;;;-3.10;99.90;;;;;;5072397;28;20024;-77
2022/12/11 00:51:46;;;;;;;7.05;6.57;;;-3.10;99.90;;;;;;5088009;28;20053;-78
2022/12/11 00:54:12;;;;;;;1.50;1.50;;;-3.20;99.90;;;;;;5078894;28;20028;-78
2022/12/11 00:56:37;;;;;;;1.50;1.50;;;-3.20;99.90;;;;;;5087221;28;20024;-77
2022/12/11 00:59:03;;;;;;;1.30;1.30;;;-3.20;99.90;;;;;;5080963;28;20121;-77
2022/12/11 01:01:29;;;;;;;1.30;1.30;;;-3.30;99.90;;;;;;5082311;28;20027;-76
2022/12/11 01:03:54;;;;;;;1.35;1.35;;;-3.20;99.90;;;;;;5084689;28;20127;-76
2022/12/11 01:06:23;;;;;;;2.38;2.28;;;-3.20;99.90;;;;;;5085170;28;20035;-77
2022/12/11 01:10:22;;;;;;;1.27;1.27;;;-3.20;99.90;;;;;;5075212;28;20493;-78
2022/12/11 01:11:38;;;;;;;1.30;1.30;;;-3.10;99.90;;;;;;5078563;28;20028;-78
2022/12/11 01:14:05;;;;;;;1.88;1.88;;;-3.10;99.90;;;;;;5087570;28;20025;-78
2022/12/11 01:16:30;;;;;;;2.25;2.15;;;-3.10;99.90;;;;;;5075578;28;20082;-77
2022/12/11 01:18:56;;;;;;;1.92;1.83;;;-3.00;99.90;;;;;;5071616;28;20020;-77
2022/12/11 01:21:22;;;;;;;1.45;1.45;;;-3.00;99.90;;;;;;5079664;28;20085;-78
2022/12/11 01:23:50;;;;;;;1.50;1.50;;;-3.00;99.90;;;;;;5094454;28;20032;-77
2022/12/11 01:26:16;;;;;;;1.10;1.10;;;-3.10;99.90;;;;;;5077553;28;20039;-77
2022/12/11 01:28:42;;;;;;;2.53;2.42;;;-3.10;99.90;;;;;;5095354;28;20021;-78
2022/12/11 01:31:13;;;;;;;1.30;1.30;;;-3.10;99.90;;;;;;5083402;28;20028;-78
2022/12/11 01:33:39;;;;;;;1.80;1.80;;;-3.30;99.90;;;;;;5084981;28;20490;-77
2022/12/11 01:36:17;;;;;;;3.42;3.25;;;-3.50;99.90;;;;;;5087849;28;20386;-77
2022/12/11 01:38:44;;;;;;;4.60;4.30;;;-3.50;99.90;;;;;;5086882;28;20028;-77
2022/12/11 01:41:10;;;;;;;1.20;1.20;;;-3.40;99.90;;;;;;5076351;28;20101;-78
2022/12/11 01:44:14;;;;;;;1.98;1.88;;;-3.40;99.90;;;;;;5075148;28;20032;-78
2022/12/11 01:46:40;;;;;;;1.73;1.73;;;-3.50;99.90;;;;;;5055633;28;20082;-77
2022/12/11 01:49:10;;;;;;;1.00;1.00;;;-3.50;99.90;;;;;;5078207;28;20035;-78
2022/12/11 01:51:57;;;;;;;1.70;1.70;;;-3.40;99.90;;;;;;5083863;28;20097;-76
2022/12/11 01:54:24;;;;;;;1.85;1.80;;;-3.40;99.90;;;;;;5074652;28;20508;-77
2022/12/11 01:56:52;;;;;;;1.48;1.48;;;-3.40;99.90;;;;;;5085742;28;20113;-77
2022/12/11 01:59:22;;;;;;;7.22;6.70;;;-3.40;99.90;;;;;;5073982;28;20016;-76
2022/12/11 02:02:10;;;;;;;3.30;3.05;;;-3.60;99.90;;;;;;5067516;28;20025;-77
2022/12/11 02:04:38;;;;;;;1.10;1.10;;;-3.50;99.90;;;;;;5083575;28;20032;-77
2022/12/11 02:07:04;;;;;;;1.45;1.45;;;-3.50;99.90;;;;;;5077208;28;20025;-77
2022/12/11 02:09:32;;;;;;;1.20;1.20;;;-3.50;99.90;;;;;;5081340;28;20073;-76
2022/12/11 02:12:22;;;;;;;1.40;1.40;;;-3.60;99.90;;;;;;5074542;28;20032;-76
2022/12/11 02:15:19;;;;;;;2.30;2.20;;;-3.60;99.90;;;;;;5070858;28;20033;-76
2022/12/11 02:17:59;;;;;;;9.18;2.17;;;-3.70;99.90;;;;;;5070279;28;20056;-77
2022/12/11 02:20:37;;;;;;;1.40;1.40;;;-3.60;99.90;;;;;;5084661;28;20486;-77
2022/12/11 02:23:11;;;;;;;1.40;1.40;;;-3.80;99.90;;;;;;5072669;28;20025;-77
2022/12/11 02:25:49;;;;;;;5.07;4.68;;;-3.70;99.90;;;;;;5080587;28;20040;-77
2022/12/11 02:28:30;;;;;;;1.55;1.55;;;-3.60;99.90;;;;;;5076365;28;20028;-76
2022/12/11 02:31:08;;;;;;;1.30;1.30;;;-3.70;99.90;;;;;;5077464;28;20025;-76
2022/12/11 02:33:51;;;;;;;1.10;1.10;;;-3.80;99.90;;;;;;5069621;28;20029;-76
2022/12/11 02:36:20;;;;;;;1.25;1.25;;;-3.80;99.90;;;;;;5084713;28;20481;-76
2022/12/11 02:38:49;;;;;;;1.60;1.60;;;-3.70;99.90;;;;;;5081158;28;20028;-76
2022/12/11 02:41:18;;;;;;;1.35;1.35;;;-3.70;99.90;;;;;;5079593;28;20024;-76
2022/12/11 02:43:46;;;;;;;2.28;2.17;;;-3.70;99.90;;;;;;5082204;28;20500;-76
2022/12/11 02:46:13;;;;;;;1.40;1.40;;;-3.60;99.90;;;;;;5088336;28;20028;-77
2022/12/11 02:48:40;;;;;;;3.05;2.85;;;-3.70;99.90;;;;;;5085735;28;20036;-77
2022/12/11 02:51:07;;;;;;;1.67;1.67;;;-3.80;99.90;;;;;;5080509;28;20048;-77
2022/12/11 02:53:37;;;;;;;1.45;1.45;;;-3.90;99.90;;;;;;5083044;28;20107;-78
2022/12/11 02:56:11;;;;;;;1.20;1.20;;;-3.90;99.90;;;;;;5082710;28;20027;-77
2022/12/11 02:58:44;;;;;;;1.38;1.38;;;-3.80;99.90;;;;;;5081557;28;20563;-78
2022/12/11 03:01:10;;;;;;;1.35;1.35;;;-3.70;99.90;;;;;;5084340;28;20032;-77
2022/12/11 03:03:35;;;;;;;1.52;1.52;;;-3.50;99.90;;;;;;5070357;28;20529;-76
2022/12/11 03:06:02;;;;;;;1.17;1.17;;;-3.40;99.90;;;;;;5084693;28;20032;-77
2022/12/11 03:08:28;;;;;;;1.63;1.63;;;-3.40;99.90;;;;;;5087578;28;20034;-77
2022/12/11 03:10:53;;;;;;;1.48;1.48;;;-3.40;99.90;;;;;;5084493;28;20114;-78
2022/12/11 03:13:21;;;;;;;1.63;1.63;;;-3.40;99.90;;;;;;5082420;28;20064;-77
2022/12/11 03:16:08;;;;;;;1.50;1.50;;;-3.30;99.90;;;;;;5084404;28;20048;-76
2022/12/11 03:18:43;;;;;;;1.70;1.70;;;-3.30;99.90;;;;;;5087140;28;20437;-76
2022/12/11 03:21:26;;;;;;;1.55;1.55;;;-3.30;99.90;;;;;;5085705;28;20114;-76
2022/12/11 03:24:06;;;;;;;1.10;1.10;;;-3.20;99.90;;;;;;5072816;28;20032;-77
2022/12/11 03:26:38;;;;;;;1.60;1.60;;;-3.20;99.90;;;;;;5081282;28;20082;-77
2022/12/11 03:29:15;;;;;;;1.75;1.75;;;-3.20;99.90;;;;;;5084741;28;20544;-77
2022/12/11 03:32:00;;;;;;;1.40;1.40;;;-3.20;99.90;;;;;;5075322;28;20104;-77
2022/12/11 03:34:51;;;;;;;1.83;1.83;;;-3.30;99.90;;;;;;5089388;28;20615;-78
2022/12/11 03:37:20;;;;;;;1.60;1.60;;;-3.50;99.90;;;;;;5089102;28;20070;-79
2022/12/11 03:39:50;;;;;;;2.45;2.35;;;-3.60;99.90;;;;;;5084091;28;20027;-78
2022/12/11 03:42:17;;;;;;;1.42;1.42;;;-3.70;99.90;;;;;;5082267;28;20093;-78
2022/12/11 03:44:47;;;;;;;3.50;3.40;;;-3.60;99.90;;;;;;5069351;28;20028;-79
2022/12/11 03:47:17;;;;;;;1.45;1.45;;;-3.40;99.90;;;;;;5080813;28;20074;-76
2022/12/11 03:49:44;;;;;;;1.50;1.50;;;-3.40;99.90;;;;;;5084852;28;20375;-77
2022/12/11 03:52:12;;;;;;;1.20;1.20;;;-3.30;99.90;;;;;;5088670;28;20024;-78
2022/12/11 03:54:40;;;;;;;1.30;1.30;;;-3.40;99.90;;;;;;5073935;28;20386;-78
2022/12/11 03:57:09;;;;;;;1.55;1.55;;;-3.40;99.90;;;;;;5087462;28;20054;-77
2022/12/11 03:59:34;;;;;;;1.67;1.67;;;-3.20;99.90;;;;;;5084337;28;20497;-77
2022/12/11 04:02:00;;;;;;;1.38;1.38;;;-3.20;99.90;;;;;;5080602;28;20027;-78
2022/12/11 04:04:25;;;;;;;1.40;1.40;;;-3.30;99.90;;;;;;5086171;28;20028;-79
2022/12/11 04:06:51;;;;;;;2.05;2.05;;;-3.30;99.90;;;;;;5088644;28;20024;-78
2022/12/11 04:09:16;;;;;;;2.22;2.13;;;-3.20;99.90;;;;;;5082762;28;20024;-77
2022/12/11 04:11:42;;;;;;;1.50;1.50;;;-3.20;99.90;;;;;;5079523;28;20020;-77
2022/12/11 04:16:56;;;;;;;1.38;1.38;;;-3.30;99.90;;;;;;5087623;28;20095;-77
2022/12/11 04:24:53;;;;;;;3.05;2.95;;;-3.20;99.90;;;;;;5080679;28;20115;-79
2022/12/11 04:30:09;;;;;;;1.48;1.48;;;-3.40;99.90;;;;;;5087569;28;20095;-77
2022/12/11 04:32:35;;;;;;;1.60;1.60;;;-3.30;99.90;;;;;;5085217;28;20032;-76
2022/12/11 04:35:01;;;;;;;2.10;2.00;;;-3.30;99.90;;;;;;5091682;28;20027;-76
2022/12/11 04:37:27;;;;;;;2.33;2.22;;;-3.20;99.90;;;;;;5079692;28;20021;-77
2022/12/11 04:39:52;;;;;;;1.52;1.52;;;-3.30;99.90;;;;;;5085124;28;20040;-77
2022/12/11 04:42:18;;;;;;;1.48;1.48;;;-3.20;99.90;;;;;;5071118;28;20017;-77
2022/12/11 04:44:44;;;;;;;1.40;1.40;;;-3.30;99.90;;;;;;5085888;28;20029;-76
2022/12/11 04:47:10;;;;;;;1.52;1.52;;;-3.30;99.90;;;;;;5072611;28;20024;-76
2022/12/11 04:49:35;;;;;;;5.00;4.60;;;-3.20;99.90;;;;;;5072435;28;20028;-76
2022/12/11 04:52:01;;;;;;;2.47;2.38;;;-3.10;99.90;;;;;;5071397;28;20569;-77
2022/12/11 04:54:28;;;;;;;1.35;1.35;;;-3.20;99.90;;;;;;5072335;28;20031;-77
2022/12/11 04:56:54;;;;;;;1.90;1.90;;;-3.00;99.90;;;;;;5081626;28;20022;-76
2022/12/11 04:59:19;;;;;;;1.65;1.65;;;-2.90;99.90;;;;;;5109912;28;20036;-77
2022/12/11 05:01:45;;;;;;;1.83;1.83;;;-2.90;99.90;;;;;;5095595;28;20024;-75
2022/12/11 05:04:11;;;;;;;1.67;1.67;;;-2.80;99.90;;;;;;5096794;28;20017;-75
2022/12/11 05:06:36;;;;;;;1.63;1.63;;;-2.80;99.90;;;;;;5096920;28;20095;-76
2022/12/11 05:09:02;;;;;;;1.48;1.48;;;-2.80;99.90;;;;;;5096603;28;20012;-77
2022/12/11 05:11:28;;;;;;;2.13;2.10;;;-2.80;99.90;;;;;;5090717;28;20032;-76
2022/12/11 05:13:53;;;;;;;1.50;1.50;;;-2.90;99.90;;;;;;5091661;28;20028;-75
2022/12/11 05:16:19;;;;;;;1.48;1.48;;;-2.90;99.90;;;;;;5090743;28;20017;-75
2022/12/11 05:18:46;;;;;;;1.77;1.77;;;-3.00;99.90;;;;;;5104447;28;20043;-75
2022/12/11 05:21:13;;;;;;;2.03;2.00;;;-3.10;99.90;;;;;;5102400;28;20027;-76
2022/12/11 05:23:39;;;;;;;1.63;1.63;;;-3.00;99.90;;;;;;5088706;28;20029;-76
2022/12/11 05:26:08;;;;;;;1.73;1.73;;;-2.80;99.90;;;;;;5074580;28;20026;-76
2022/12/11 05:28:37;;;;;;;1.60;1.60;;;-2.80;99.90;;;;;;5086072;28;20039;-77
2022/12/11 05:31:06;;;;;;;1.70;1.70;;;-2.90;99.90;;;;;;5087056;28;20028;-77
2022/12/11 05:33:33;;;;;;;1.65;1.65;;;-2.80;99.90;;;;;;5083250;28;20088;-76
2022/12/11 05:35:59;;;;;;;3.08;2.97;;;-2.70;99.90;;;;;;5079082;28;20024;-77
2022/12/11 05:38:24;;;;;;;3.03;2.92;;;-2.60;99.90;;;;;;5088637;28;20103;-78
2022/12/11 05:41:01;;;;;;;1.55;1.55;;;-2.60;99.90;;;;;;5081209;28;20082;-77
2022/12/11 05:43:28;;;;;;;1.70;1.70;;;-2.50;99.90;;;;;;5089234;28;20552;-76
2022/12/11 05:45:54;;;;;;;2.63;2.53;;;-2.60;99.90;;;;;;5087602;28;20087;-78
2022/12/11 05:48:20;;;;;;;1.50;1.50;;;-2.80;99.90;;;;;;5092239;28;20393;-77
2022/12/11 05:50:59;;;;;;;3.88;3.70;;;-2.70;99.90;;;;;;5091679;28;20032;-78
2022/12/11 05:53:25;;;;;;;1.83;1.83;;;-2.60;99.90;;;;;;5086704;28;20028;-76
2022/12/11 05:55:51;;;;;;;1.38;1.38;;;-2.60;99.90;;;;;;5080167;28;20016;-76
2022/12/11 05:58:17;;;;;;;1.85;1.85;;;-2.70;99.90;;;;;;5089092;28;20017;-79
2022/12/11 06:00:42;;;;;;;1.55;1.55;;;-2.80;99.90;;;;;;5077142;28;20052;-78
2022/12/11 06:03:08;;;;;;;1.70;1.70;;;-2.80;99.90;;;;;;5079619;28;20024;-78
2022/12/11 06:05:37;;;;;;;1.83;1.83;;;-2.80;99.90;;;;;;5102101;28;20062;-78
2022/12/11 06:08:03;;;;;;;3.97;3.80;;;-2.70;99.90;;;;;;5081614;28;20474;-77
2022/12/11 06:10:29;;;;;;;1.75;1.75;;;-2.70;99.90;;;;;;5084730;28;20043;-76
2022/12/11 06:12:54;;;;;;;2.78;2.67;;;-2.60;99.90;;;;;;5082777;28;20035;-76
2022/12/11 06:15:21;;;;;;;1.95;1.95;;;-2.70;99.90;;;;;;5086554;28;20021;-76
2022/12/11 06:17:46;;;;;;;1.83;1.83;;;-2.80;99.90;;;;;;5086633;28;20017;-77
2022/12/11 06:20:12;;;;;;;1.75;1.75;;;-2.60;99.90;;;;;;5081002;28;20073;-76
2022/12/11 06:22:37;;;;;;;1.73;1.73;;;-2.50;99.90;;;;;;5083234;28;20506;-76
2022/12/11 06:25:03;;;;;;;1.60;1.60;;;-2.60;99.90;;;;;;5087161;28;20031;-76
2022/12/11 06:27:29;;;;;;;1.77;1.77;;;-2.60;99.90;;;;;;5086797;28;20024;-75
2022/12/11 06:29:55;;;;;;;1.52;1.52;;;-2.60;99.90;;;;;;5083586;28;20023;-78
2022/12/11 06:32:21;;;;;;;2.42;2.33;;;-2.60;99.90;;;;;;5094931;28;20028;-78
2022/12/11 06:34:47;;;;;;;1.98;1.98;;;-2.60;99.90;;;;;;5101392;28;20035;-78
2022/12/11 06:37:12;;;;;;;1.73;1.73;;;-2.50;99.90;;;;;;5097640;28;20023;-78
2022/12/11 06:39:38;;;;;;;3.60;3.30;;;-2.50;99.90;;;;;;5094954;28;20059;-78
2022/12/11 06:42:03;;;;;;;2.05;2.05;;;-2.40;99.90;;;;;;5097425;28;20028;-78
2022/12/11 06:44:29;;;;;;;2.08;2.03;;;-2.50;99.90;;;;;;5088622;28;20115;-78
2022/12/11 06:46:54;;;;;;;1.83;1.83;;;-2.50;99.90;;;;;;5098159;28;20028;-77
2022/12/11 06:49:20;;;;;;;2.30;2.20;;;-2.40;99.90;;;;;;5090488;28;20039;-79
2022/12/11 06:51:46;;;;;;;2.47;2.38;;;-2.50;99.90;;;;;;5084506;28;20021;-78
2022/12/11 06:54:12;;;;;;;1.90;1.90;;;-2.50;99.90;;;;;;5085416;28;20059;-77
2022/12/11 06:56:37;;;;;;;2.17;2.17;;;-2.50;99.90;;;;;;5085455;28;20017;-78
2022/12/11 06:59:03;;;;;;;5.50;3.63;;;-2.50;99.90;;;;;;5085346;28;20425;-77
2022/12/11 07:01:28;;;;;;;1.60;1.60;;;-2.40;99.90;;;;;;5087520;28;20461;-79
2022/12/11 07:03:55;;;;;;;1.88;1.88;;;-2.40;99.90;;;;;;5082192;28;20028;-79
2022/12/11 07:06:21;;;;;;;2.00;2.00;;;-2.50;99.90;;;;;;5087226;28;20047;-78
2022/12/11 07:08:47;;;;;;;3.38;3.28;;;-2.50;99.90;;;;;;5089870;28;20024;-78
2022/12/11 07:11:14;;;;;;;3.83;3.65;;;-2.60;99.90;;;;;;5094373;28;20080;-79
2022/12/11 07:13:43;;;;;;;1.80;1.80;;;-2.50;99.90;;;;;;5097814;28;20025;-79
2022/12/11 07:16:11;;;;;;;2.25;2.15;;;-2.60;99.90;;;;;;5085881;28;20035;-79
2022/12/11 07:18:38;;;;;;;3.08;2.70;;;-2.50;99.90;;;;;;5083923;28;20020;-79
2022/12/11 07:21:04;;;;;;;2.70;2.60;;;-2.60;99.90;;;;;;5093253;28;20013;-79
2022/12/11 07:23:30;;;;;;;5.30;4.80;;;-2.50;99.90;;;;;;5084751;28;20050;-78
2022/12/11 07:25:56;;;;;;;2.50;2.40;;;-2.50;99.90;;;;;;5097111;28;20450;-78
2022/12/11 07:28:22;;;;;;;3.67;3.55;;;-2.70;99.90;;;;;;5088546;28;20080;-76
2022/12/11 07:30:48;;;;;;;4.13;3.83;;;-2.60;99.90;;;;;;5087095;28;20078;-80
2022/12/11 07:33:14;;;;;;;2.40;2.30;;;-2.60;99.90;;;;;;5080208;28;20053;-76
2022/12/11 07:35:40;;;;;;;3.50;3.20;;;-2.70;99.90;;;;;;5096698;28;20021;-77
2022/12/11 07:38:05;;;;;;;2.83;2.65;;;-2.70;99.90;;;;;;5081408;28;20027;-77
2022/12/11 07:40:32;;;;;;;2.28;2.20;;;-2.70;99.90;;;;;;5080126;28;20020;-75
2022/12/11 07:42:58;;;;;;;2.00;2.00;;;-2.60;99.90;;;;;;5087448;28;20502;-77
2022/12/11 07:45:25;;;;;;;1.92;1.92;;;-2.50;99.90;;;;;;5089034;28;20031;-77
2022/12/11 07:47:51;;;;;;;1.75;1.75;;;-2.50;99.90;;;;;;5081492;28;20119;-76
2022/12/11 07:50:17;;;;;;;2.47;2.38;;;-2.60;99.90;;;;;;5074844;28;20021;-76
2022/12/11 07:52:43;;;;;;;2.13;2.13;;;-2.50;99.90;;;;;;5093736;28;20024;-76
2022/12/11 07:55:09;;;;;;;6.60;4.50;;;-2.40;99.90;;;;;;5096128;28;20032;-76
2022/12/11 07:57:35;;;;;;;5.28;5.03;;;-2.40;99.90;;;;;;5079121;28;20047;-76
2022/12/11 08:00:01;;;;;;;2.83;2.72;;;-2.30;99.90;;;;;;5079677;28;20447;-76
2022/12/11 08:02:26;;;;;;;2.13;2.10;;;-2.40;99.90;;;;;;5088601;28;20115;-76
2022/12/11 08:04:52;;;;;;;2.15;2.10;;;-2.30;99.90;;;;;;5080613;28;20031;-76
2022/12/11 08:07:18;;;;;;;2.38;2.28;;;-2.20;99.90;;;;;;5079585;28;20043;-76
2022/12/11 08:09:43;;;;;;;2.40;2.30;;;-2.10;99.90;;;;;;5080647;28;20036;-76
2022/12/11 08:12:09;;;;;;;7.40;6.88;;;-2.10;99.90;;;;;;5089223;28;20032;-76
2022/12/11 08:14:34;;;;;;;1.90;1.90;;;-2.00;99.90;;;;;;5073783;28;20029;-76
2022/12/11 08:17:01;;;;;;;2.45;2.35;;;-2.00;99.90;;;;;;5081438;28;20777;-77
2022/12/11 08:19:27;;;;;;;2.35;2.25;;;-2.00;99.90;;;;;;5083113;28;20016;-77
2022/12/11 08:21:52;;;;;;;2.20;2.15;;;-2.20;99.90;;;;;;5089876;28;20016;-77
2022/12/11 08:24:19;;;;;;;2.58;2.50;;;-2.20;99.90;;;;;;5091548;28;20035;-77
2022/12/11 08:26:46;;;;;;;2.38;2.28;;;-2.30;99.90;;;;;;5075381;28;20143;-76
2022/12/11 08:29:12;;;;;;;2.78;2.67;;;-2.40;99.90;;;;;;5073701;28;20111;-76
2022/12/11 08:31:39;;;;;;;2.88;2.78;;;-2.30;99.90;;;;;;5089060;28;20028;-76
2022/12/11 08:34:05;;;;;;;4.90;4.55;;;-2.30;99.90;;;;;;5089481;28;20042;-77
2022/12/11 08:36:30;;;;;;;6.95;6.65;;;-2.30;99.90;;;;;;5080748;28;20020;-76
2022/12/11 08:38:56;;;;;;;2.35;2.25;;;-2.30;99.90;;;;;;5078796;28;20070;-76
2022/12/11 08:41:28;;;;;;;2.55;2.45;;;-2.40;99.90;;;;;;5071502;28;20052;-76
2022/12/11 08:43:54;;;;;;;4.50;3.35;;;-2.30;99.90;;;;;;5086452;28;20032;-76
2022/12/11 08:46:22;;;;;;;3.58;3.42;;;-2.40;99.90;;;;;;5080109;28;20094;-76
2022/12/11 08:48:48;;;;;;;2.70;2.60;;;-2.40;99.90;;;;;;5090893;28;20024;-75
2022/12/11 08:51:16;;;;;;;3.08;2.88;;;-2.40;99.90;;;;;;5071763;28;20402;-76
2022/12/11 08:53:42;;;;;;;7.15;2.38;;;-2.30;99.90;;;;;;5073603;28;20025;-76
2022/12/11 08:56:11;;;;;;;2.75;2.65;;;-2.30;99.90;;;;;;5083282;28;20017;-76
2022/12/11 08:58:37;;;;;;;3.00;2.90;;;-2.30;99.90;;;;;;5071211;28;20027;-76
2022/12/11 09:01:11;;;;;;;2.70;2.60;;;-2.30;99.90;;;;;;5084301;28;20024;-76
2022/12/11 09:03:38;;;;;;;4.35;4.07;;;-2.30;99.90;;;;;;5084518;28;20066;-76
2022/12/11 09:06:10;;;;;;;3.78;3.47;;;-2.20;99.90;;;;;;5079785;28;20124;-76
2022/12/11 09:08:36;;;;;;;3.33;3.22;;;-2.10;99.90;;;;;;5078028;28;20024;-76
2022/12/11 09:11:07;;;;;;;4.78;3.47;;;-2.20;99.90;;;;;;5080547;28;20028;-76
2022/12/11 09:13:33;;;;;;;2.70;2.60;;;-2.20;99.90;;;;;;5085327;28;20028;-76
2022/12/11 09:15:58;;;;;;;3.10;3.00;;;-2.20;99.90;;;;;;5081751;28;20085;-76
2022/12/11 09:18:24;;;;;;;2.88;2.78;;;-2.10;99.90;;;;;;5075376;28;20021;-77
2022/12/11 09:21:05;;;;;;;2.63;2.53;;;-2.10;99.90;;;;;;5084027;28;20016;-77
2022/12/11 09:23:31;;;;;;;10.30;5.88;;;-2.00;99.90;;;;;;5087092;28;20083;-77
2022/12/11 09:25:57;;;;;;;3.70;3.60;;;-2.00;99.90;;;;;;5087094;28;20031;-75
2022/12/11 09:28:23;;;;;;;2.90;2.80;;;-2.00;99.90;;;;;;5077876;28;20182;-77
2022/12/11 09:30:49;;;;;;;3.30;3.20;;;-2.10;99.90;;;;;;5077424;28;20123;-76
2022/12/11 09:33:14;;;;;;;3.38;3.25;;;-2.00;99.90;;;;;;5085159;28;20600;-77
2022/12/11 09:35:40;;;;;;;2.70;2.60;;;-1.90;99.90;;;;;;5073950;28;20363;-77
2022/12/11 09:38:05;;;;;;;6.65;6.15;;;-1.90;99.90;;;;;;5059897;28;20021;-77
2022/12/11 09:40:31;;;;;;;3.63;3.45;;;-1.90;99.90;;;;;;5088660;28;20099;-76
2022/12/11 09:43:17;;;;;;;2.95;2.85;;;-1.80;99.90;;;;;;5078343;28;20025;-76
2022/12/11 09:45:42;;;;;;;7.35;6.68;;;-1.80;99.90;;;;;;5087237;28;20042;-77
2022/12/11 09:48:10;;;;;;;5.97;5.40;;;-1.60;99.90;;;;;;5083504;28;20521;-77
2022/12/11 09:50:35;;;;;;;3.97;3.78;;;-1.70;99.90;;;;;;5082170;28;20103;-75
2022/12/11 09:53:07;;;;;;;3.30;3.08;;;-1.70;99.90;;;;;;5075330;28;20107;-75
2022/12/11 09:56:06;;;;;;;5.45;4.25;;;-1.60;99.90;;;;;;5074848;28;20128;-75
2022/12/11 09:58:55;;;;;;;3.70;3.50;;;-1.50;99.90;;;;;;5074632;28;20021;-78
2022/12/11 10:01:58;;;;;;;2.63;2.53;;;-1.50;99.90;;;;;;5084915;28;20060;-78
2022/12/11 10:05:08;;;;;;;3.72;3.40;;;-1.40;99.90;;;;;;5077149;28;20039;-76
2022/12/11 10:07:43;;;;;;;2.67;2.58;;;-1.50;99.90;;;;;;5067909;28;20040;-75
2022/12/11 10:10:22;;;;;;;2.65;2.55;;;-1.50;99.90;;;;;;5085425;28;20032;-77
2022/12/11 10:13:05;;;;;;;4.10;2.70;;;-1.40;99.90;;;;;;5085607;28;20039;-76
2022/12/11 10:16:06;;;;;;;2.65;2.55;;;-1.40;99.90;;;;;;5089109;28;20071;-76
2022/12/11 10:18:32;;;;;;;4.38;4.13;;;-1.30;99.90;;;;;;5088242;28;20021;-76
2022/12/11 10:21:01;;;;;;;7.75;6.22;;;-1.50;99.90;;;;;;5086349;28;20020;-76
2022/12/11 10:23:39;;;;;;;3.78;3.63;;;-1.40;99.90;;;;;;5076818;28;20056;-75
2022/12/11 10:26:16;;;;;;;6.97;4.25;;;-1.50;99.90;;;;;;5073530;28;20029;-76
2022/12/11 10:28:42;;;;;;;3.50;3.40;;;-1.40;99.90;;;;;;5073455;28;20112;-76
2022/12/11 10:31:45;;;;;;;2.28;2.20;;;-1.50;99.90;;;;;;5076053;28;20062;-76
2022/12/11 10:34:13;;;;;;;2.92;2.83;;;-1.40;99.90;;;;;;5075555;28;20115;-76
2022/12/11 10:36:41;;;;;;;5.93;4.38;;;-1.30;99.90;;;;;;5068233;28;20032;-76
2022/12/11 10:39:18;;;;;;;2.80;2.70;;;-1.30;99.90;;;;;;5079535;28;20402;-76
2022/12/11 10:41:46;;;;;;;8.98;5.97;;;-1.40;99.90;;;;;;5086261;28;20032;-76
2022/12/11 10:44:18;;;;;;;3.83;2.80;;;-1.50;99.90;;;;;;5088501;28;20027;-76
2022/12/11 10:46:45;;;;;;;5.22;3.72;;;-1.40;99.90;;;;;;5073616;28;20025;-76
2022/12/11 10:49:32;;;;;;;5.13;4.72;;;-1.30;99.90;;;;;;5076791;28;20024;-76
2022/12/11 10:52:00;;;;;;;2.42;2.33;;;-1.40;99.90;;;;;;5082249;28;20105;-76
2022/12/11 10:54:37;;;;;;;2.80;2.60;;;-1.30;99.90;;;;;;5073825;28;20028;-77
2022/12/11 10:57:04;;;;;;;2.83;2.72;;;-1.20;99.90;;;;;;5076223;28;20017;-76
2022/12/11 10:59:42;;;;;;;1.90;1.83;;;-1.10;99.90;;;;;;5085340;28;20090;-76
2022/12/11 11:02:21;;;;;;;3.25;3.05;;;-1.10;99.90;;;;;;5084079;28;20026;-76
2022/12/11 11:04:48;;;;;;;4.78;4.50;;;-1.20;99.90;;;;;;5081947;28;20032;-76
2022/12/11 11:07:18;;;;;;;2.78;2.67;;;-1.10;99.90;;;;;;5078203;28;20065;-76
2022/12/11 11:09:44;;;;;;;2.70;2.50;;;-1.20;99.90;;;;;;5079466;28;20024;-76
2022/12/11 11:12:25;;;;;;;4.88;4.57;;;-1.30;99.90;;;;;;5073999;28;20351;-76
2022/12/11 11:15:24;;;;;;;3.95;3.55;;;-1.40;99.90;;;;;;5089772;28;20382;-76
2022/12/11 11:17:55;;;;;;;4.72;3.13;;;-1.60;99.90;;;;;;5080315;28;20493;-76
2022/12/11 11:20:29;;;;;;;10.20;7.30;;;-1.60;99.90;;;;;;5086847;28;20425;-76
2022/12/11 11:22:58;;;;;;;9.77;7.88;;;-1.60;99.90;;;;;;5087871;28;20051;-76
2022/12/11 11:25:26;;;;;;;3.60;3.40;;;-1.60;99.90;;;;;;5081937;28;20032;-76
2022/12/11 11:28:01;;;;;;;7.93;6.90;;;-1.70;99.90;;;;;;5080388;28;20052;-76
2022/12/11 11:30:30;;;;;;;3.83;3.67;;;-1.80;99.90;;;;;;5083326;28;20025;-75
2022/12/11 11:33:00;;;;;;;6.55;6.00;;;-1.70;99.90;;;;;;5087115;28;20041;-75
2022/12/11 11:35:28;;;;;;;1.77;1.70;;;-1.80;99.90;;;;;;5085508;28;20534;-75
2022/12/11 11:38:12;;;;;;;3.08;2.90;;;-1.80;99.90;;;;;;5078833;28;20028;-76
2022/12/11 11:41:04;;;;;;;11.05;6.88;;;-1.90;99.90;;;;;;5079065;28;20043;-76
2022/12/11 11:43:39;;;;;;;9.77;3.75;;;-2.00;99.90;;;;;;5080946;28;20490;-75
2022/12/11 11:46:11;;;;;;;3.55;3.35;;;-1.90;99.90;;;;;;5087186;28;20467;-76
2022/12/11 11:49:11;;;;;;;3.38;3.17;;;-1.90;99.90;;;;;;5086617;28;20386;-76
2022/12/11 11:51:45;;;;;;;6.32;5.60;;;-2.00;99.90;;;;;;5072369;28;20077;-76
2022/12/11 11:54:32;;;;;;;1.75;1.75;;;-1.90;99.90;;;;;;5085891;28;20078;-75
2022/12/11 11:57:04;;;;;;;2.08;1.98;;;-1.90;99.90;;;;;;5070808;28;20016;-76
2022/12/11 11:59:39;;;;;;;1.75;1.70;;;-1.90;99.90;;;;;;5072128;28;20054;-76
2022/12/11 12:02:14;;;;;;;2.60;2.50;;;-1.80;99.90;;;;;;5071883;28;20031;-75
2022/12/11 12:04:41;;;;;;;5.07;4.83;;;-1.80;99.90;;;;;;5073100;28;20031;-75
2022/12/11 12:07:13;;;;;;;2.10;2.00;;;-1.80;99.90;;;;;;5072644;28;20169;-76
2022/12/11 12:09:45;;;;;;;5.15;2.63;;;-1.80;99.90;;;;;;5072486;28;20032;-75
2022/12/11 12:12:28;;;;;;;3.70;2.28;;;-1.80;99.90;;;;;;5069279;28;20081;-75
2022/12/11 12:14:56;;;;;;;6.78;2.85;;;-1.80;99.90;;;;;;5069869;28;20024;-75
2022/12/11 12:17:30;;;;;;;1.63;1.52;;;-1.80;99.90;;;;;;5069471;28;20545;-76
2022/12/11 12:20:26;;;;;;;3.88;3.58;;;-1.80;99.90;;;;;;5070109;28;20024;-76
2022/12/11 12:22:51;;;;;;;1.70;1.70;;;-1.70;99.90;;;;;;5071835;28;20046;-76
2022/12/11 12:26:08;;;;;;;2.78;2.45;;;-1.70;99.90;;;;;;5082878;28;20477;-76
2022/12/11 12:28:52;;;;;;;1.67;1.67;;;-1.80;99.90;;;;;;5046438;28;20171;-76
2022/12/11 12:31:43;;;;;;;2.85;2.58;;;-1.80;99.90;;;;;;5064418;28;20025;-76
2022/12/11 12:34:30;;;;;;;1.00;1.00;;;-1.70;99.90;;;;;;5067876;28;20085;-76
2022/12/11 12:37:16;;;;;;;0.98;0.98;;;-1.70;99.90;;;;;;5062125;28;20028;-76
2022/12/11 12:40:03;;;;;;;1.35;1.35;;;-1.70;99.90;;;;;;5065664;28;20024;-76
2022/12/11 12:42:44;;;;;;;3.38;3.08;;;-1.60;99.90;;;;;;5072268;28;20066;-75
2022/12/11 12:45:12;;;;;;;2.97;2.72;;;-1.70;99.90;;;;;;5072879;28;20106;-75
2022/12/11 12:47:42;;;;;;;3.05;1.80;;;-1.80;99.90;;;;;;5080050;28;20111;-75
2022/12/11 12:50:15;;;;;;;2.28;1.67;;;-1.70;99.90;;;;;;5076853;28;20111;-74
2022/12/11 12:52:42;;;;;;;1.83;1.73;;;-1.70;99.90;;;;;;5053932;28;20056;-75
2022/12/11 12:55:21;;;;;;;2.63;2.45;;;-1.80;99.90;;;;;;5060653;28;20031;-76
2022/12/11 12:57:59;;;;;;;3.35;2.08;;;-1.80;99.90;;;;;;5065899;28;20020;-76
2022/12/11 13:00:32;;;;;;;0.75;0.75;;;-1.80;99.90;;;;;;5077383;28;20115;-76
2022/12/11 13:03:20;;;;;;;1.05;1.05;;;-1.80;99.90;;;;;;5080177;28;20028;-77
2022/12/11 13:05:59;;;;;;;0.80;0.80;;;-1.80;99.90;;;;;;5065467;28;20068;-76
2022/12/11 13:08:29;;;;;;;2.00;1.90;;;-1.80;99.90;;;;;;5077551;28;20031;-76
2022/12/11 13:11:10;;;;;;;3.55;3.25;;;-1.80;99.90;;;;;;5082714;28;20032;-76
2022/12/11 13:13:39;;;;;;;0.70;0.70;;;-1.70;99.90;;;;;;5084047;28;20020;-76